Decoded Metar for KDVN (DAVENPORT/QUAD C in IA, USA) (IATA:DVN) | Meteo·Mobile Aviation Weather
aviador You're here:

KDVN Decoded Metar

DAVENPORT/QUAD C in IA, USA
Report Time2019-01-21 23:52:00
UTC Time2019-01-22 00:09:59
Flight Rules vfr VFR
Wind120° at 19 Gusting to 29 kt
W.Decomp.*RWY 15: 16.3 kt HW 9.8 kt LCW
RWY 03: 0.3 kt HW 19.0 kt RCW
W.Rank120° ranks 17
Current wind is above 120° avg. (7.4)
Visibility9999 m
Phenomena:N/A
Clouds:Broken 100 Hf
Expected CloudBase > 2,400 ft AGL from Temp-Dew spread
Ceiling10,000 ft
Temp-10°C (ISA -24)
Dew Point-16°C (62% RH)
AAT-20.3°C
QNH1025 hPa
Density Alt-2,562 ft
Elevation755 ft
Report Wrong Elevation
Raw Report
KDVN 212352Z AUTO 12019G29KT 10SM BKN100 M10/M16 A3026 RMK AO2 PK
WND 13030/2321 SLP261 T11001156 11089 21106 56030=

Extra information for KDVN:More info

Metar Taf Metar & Taf Last 4 Metars F.Rules Stats Wind Profile Meteogram Temp Stats Airport Information Weather charts Add Link Nearby VenuesMetar ALERT Operation Metar Decoded Social comments

AIRNAV info for KDVN